Time;durP1;ratioP1;P1;durP2;ratioP2;P2;SDS_P1;SDS_P2;PMS_P1;PMS_P2;Temp;Humidity;BMP_temperature;BMP_pressure;BME280_temperature;BME280_humidity;BME280_pressure;Samples;Min_cycle;Max_cycle;Signal;HPM_P1;HPM_P2
2022/07/15 00:01:46;;;;;;;6.97;1.53;;;13.80;99.90;;;;;;5057914;28;20217;-47
2022/07/15 00:04:13;;;;;;;3.93;0.83;;;13.80;99.90;;;;;;5059507;28;20191;-54
2022/07/15 00:06:40;;;;;;;6.83;1.53;;;13.80;99.90;;;;;;5063505;28;20283;-48
2022/07/15 00:09:07;;;;;;;3.77;1.20;;;13.80;99.90;;;;;;5045997;28;20217;-54
2022/07/15 00:11:33;;;;;;;8.77;1.40;;;13.80;99.90;;;;;;5063327;28;20245;-49
2022/07/15 00:14:02;;;;;;;6.83;1.23;;;13.80;99.90;;;;;;5061511;28;20198;-53
2022/07/15 00:16:29;;;;;;;5.60;1.00;;;13.80;99.90;;;;;;5056075;28;20843;-53
2022/07/15 00:18:55;;;;;;;6.87;1.20;;;13.80;99.90;;;;;;5062824;28;20198;-51
2022/07/15 00:21:22;;;;;;;7.40;1.30;;;13.80;99.90;;;;;;5060691;28;21029;-46
2022/07/15 00:23:49;;;;;;;4.53;1.50;;;13.80;99.90;;;;;;5063402;28;20202;-47
2022/07/15 00:26:15;;;;;;;7.60;1.33;;;13.80;99.90;;;;;;5045616;28;20210;-51
2022/07/15 00:28:42;;;;;;;5.43;1.30;;;13.80;99.90;;;;;;5063148;28;20198;-48
2022/07/15 00:31:10;;;;;;;6.27;1.23;;;13.90;99.90;;;;;;5053172;28;20218;-50
2022/07/15 00:33:37;;;;;;;7.67;1.47;;;13.90;99.90;;;;;;5060713;28;20213;-48
2022/07/15 00:36:05;;;;;;;5.73;0.97;;;13.90;99.90;;;;;;5060702;28;20218;-51
2022/07/15 00:38:32;;;;;;;4.27;0.90;;;13.90;99.90;;;;;;5062669;28;20198;-48
2022/07/15 00:40:58;;;;;;;3.80;1.27;;;13.80;99.90;;;;;;5046027;28;20213;-49
2022/07/15 00:43:25;;;;;;;3.60;1.13;;;13.80;99.90;;;;;;5061021;28;20191;-48
2022/07/15 00:45:53;;;;;;;7.70;1.37;;;13.90;99.90;;;;;;5062130;28;20682;-54
2022/07/15 00:48:22;;;;;;;4.03;1.10;;;13.80;99.90;;;;;;5055785;28;20259;-52
2022/07/15 00:50:49;;;;;;;3.63;0.83;;;13.80;99.90;;;;;;5062036;28;20214;-51
2022/07/15 00:53:18;;;;;;;4.50;1.20;;;13.80;99.90;;;;;;5058577;28;20206;-51
2022/07/15 00:55:47;;;;;;;5.00;1.23;;;13.80;99.90;;;;;;5048846;28;20254;-49
2022/07/15 00:58:23;;;;;;;7.03;1.87;;;13.80;99.90;;;;;;5059270;28;20976;-49
2022/07/15 01:00:51;;;;;;;4.00;0.97;;;13.70;99.90;;;;;;5063261;28;20689;-51
2022/07/15 01:03:19;;;;;;;3.37;1.57;;;13.70;99.90;;;;;;5051593;28;20253;-50
2022/07/15 01:05:49;;;;;;;4.73;1.53;;;13.80;99.90;;;;;;5095552;28;20254;-48
2022/07/15 01:08:17;;;;;;;3.03;1.20;;;13.80;99.90;;;;;;5091389;28;21049;-49
2022/07/15 01:10:44;;;;;;;4.13;1.30;;;13.70;99.90;;;;;;5063105;28;20194;-48
2022/07/15 01:13:12;;;;;;;12.93;2.33;;;13.70;99.90;;;;;;5076643;28;20203;-51
2022/07/15 01:15:39;;;;;;;2.93;0.90;;;13.70;99.90;;;;;;5061513;28;20694;-50
2022/07/15 01:18:07;;;;;;;4.97;0.87;;;13.70;99.90;;;;;;5053619;28;20202;-52
2022/07/15 01:20:41;;;;;;;2.97;1.03;;;13.70;99.90;;;;;;5095777;28;20217;-46
2022/07/15 01:23:08;;;;;;;3.30;0.90;;;13.70;99.90;;;;;;5058768;28;20198;-52
2022/07/15 01:25:45;;;;;;;1.83;0.73;;;13.80;99.90;;;;;;5062088;28;20218;-48
2022/07/15 01:28:13;;;;;;;6.00;1.00;;;13.70;99.90;;;;;;5076740;28;20302;-48
2022/07/15 01:30:41;;;;;;;6.03;1.03;;;13.80;99.90;;;;;;5061468;28;20225;-50
2022/07/15 01:33:12;;;;;;;3.03;0.80;;;13.80;99.90;;;;;;5041997;28;21984;-48
2022/07/15 01:35:41;;;;;;;2.73;0.60;;;13.80;99.90;;;;;;5063116;28;20226;-52
2022/07/15 01:38:09;;;;;;;2.00;1.20;;;13.80;99.90;;;;;;5091200;28;20206;-50
2022/07/15 01:40:36;;;;;;;4.07;0.83;;;13.80;99.90;;;;;;5098125;28;20744;-51
2022/07/15 01:43:05;;;;;;;1.20;0.60;;;13.80;99.90;;;;;;5051811;28;20198;-53
2022/07/15 01:45:32;;;;;;;3.23;0.50;;;13.80;99.90;;;;;;5061352;28;20233;-52
2022/07/15 01:48:00;;;;;;;5.00;0.80;;;13.80;99.90;;;;;;5097471;28;20202;-54
2022/07/15 01:50:50;;;;;;;5.03;0.90;;;13.80;99.90;;;;;;5091704;28;20230;-51
2022/07/15 01:53:19;;;;;;;4.43;0.80;;;13.80;99.90;;;;;;5095247;28;20230;-52
2022/07/15 01:55:47;;;;;;;3.80;0.77;;;13.80;99.90;;;;;;5098824;28;20593;-50
2022/07/15 01:58:14;;;;;;;3.07;0.80;;;13.80;99.90;;;;;;5060855;28;20215;-48
2022/07/15 02:00:42;;;;;;;2.47;0.77;;;13.80;99.90;;;;;;5083297;28;20260;-48
2022/07/15 02:03:10;;;;;;;4.53;0.70;;;13.80;99.90;;;;;;5060678;28;20229;-51
2022/07/15 02:05:38;;;;;;;1.93;0.60;;;13.80;99.90;;;;;;5098853;28;20229;-53
2022/07/15 02:08:06;;;;;;;3.50;0.70;;;13.80;99.90;;;;;;5062896;28;20199;-52
2022/07/15 02:10:40;;;;;;;4.63;0.80;;;13.80;99.90;;;;;;5098584;28;20226;-49
2022/07/15 02:13:14;;;;;;;3.53;0.53;;;13.80;99.90;;;;;;5094257;28;20222;-49
2022/07/15 02:15:44;;;;;;;1.97;0.60;;;13.80;99.90;;;;;;5083677;28;20287;-51
2022/07/15 02:18:11;;;;;;;1.77;0.60;;;13.70;99.90;;;;;;5060443;28;20997;-46
2022/07/15 02:20:38;;;;;;;0.70;0.63;;;13.70;99.90;;;;;;5065844;28;20194;-48
2022/07/15 02:23:07;;;;;;;2.97;0.70;;;13.70;99.90;;;;;;5062454;28;20232;-52
2022/07/15 02:25:34;;;;;;;4.93;0.50;;;13.70;99.90;;;;;;5064394;28;20706;-53
2022/07/15 02:28:05;;;;;;;3.13;0.90;;;13.70;99.90;;;;;;5096070;28;20203;-54
2022/07/15 02:30:34;;;;;;;3.67;0.97;;;13.60;99.90;;;;;;5064936;28;20198;-53
2022/07/15 02:33:02;;;;;;;5.00;0.77;;;13.60;99.90;;;;;;5047912;28;20211;-49
2022/07/15 02:35:30;;;;;;;2.43;0.57;;;13.70;99.90;;;;;;5062742;28;20315;-50
2022/07/15 02:37:58;;;;;;;2.90;0.63;;;13.60;99.90;;;;;;5062680;28;20203;-49
2022/07/15 02:40:26;;;;;;;2.67;0.60;;;13.60;99.90;;;;;;5096089;28;20199;-50
2022/07/15 02:42:55;;;;;;;1.17;0.50;;;13.60;99.90;;;;;;5063948;28;20206;-50
2022/07/15 02:45:24;;;;;;;3.33;1.17;;;13.60;99.90;;;;;;5062314;28;20319;-49
2022/07/15 02:47:52;;;;;;;4.37;0.70;;;13.60;99.90;;;;;;5050296;28;20207;-50
2022/07/15 02:50:26;;;;;;;3.07;0.80;;;13.60;99.90;;;;;;5058660;28;20202;-47
2022/07/15 02:52:54;;;;;;;1.10;0.73;;;13.60;99.90;;;;;;5063465;28;20211;-48
2022/07/15 02:55:20;;;;;;;3.90;0.57;;;13.60;99.90;;;;;;5060509;28;20219;-47
2022/07/15 02:57:49;;;;;;;2.53;0.87;;;13.60;99.90;;;;;;5096146;28;20206;-50
2022/07/15 03:00:19;;;;;;;1.47;0.87;;;13.60;99.90;;;;;;5053243;28;20198;-46
2022/07/15 03:02:49;;;;;;;2.07;0.70;;;13.70;99.90;;;;;;5097720;28;20222;-50
2022/07/15 03:05:18;;;;;;;3.63;0.60;;;13.70;99.90;;;;;;5047454;28;20263;-51
2022/07/15 03:07:46;;;;;;;2.27;0.60;;;13.70;99.90;;;;;;5063318;28;20199;-50
2022/07/15 03:10:16;;;;;;;2.57;0.70;;;13.60;99.90;;;;;;5092793;28;20197;-48
2022/07/15 03:12:44;;;;;;;4.77;0.80;;;13.60;99.90;;;;;;5097272;28;20214;-49
2022/07/15 03:15:12;;;;;;;4.10;1.17;;;13.60;99.90;;;;;;5092849;28;20240;-49
2022/07/15 03:17:39;;;;;;;4.50;0.93;;;13.60;99.90;;;;;;5063768;28;20206;-52
2022/07/15 03:20:09;;;;;;;4.57;0.87;;;13.60;99.90;;;;;;5079077;27;20684;-52
2022/07/15 03:22:38;;;;;;;4.40;0.67;;;13.60;99.90;;;;;;5062919;28;20214;-49
2022/07/15 03:25:06;;;;;;;3.93;0.90;;;13.60;99.90;;;;;;5093977;28;20649;-49
2022/07/15 03:27:33;;;;;;;4.03;0.87;;;13.60;99.90;;;;;;5062775;28;20648;-49
2022/07/15 03:30:01;;;;;;;5.57;1.03;;;13.60;99.90;;;;;;5095307;28;20202;-48
2022/07/15 03:32:29;;;;;;;5.20;0.97;;;13.60;99.90;;;;;;5095559;28;20218;-52
2022/07/15 03:34:57;;;;;;;3.60;0.87;;;13.60;99.90;;;;;;5080757;28;20225;-50
2022/07/15 03:37:27;;;;;;;2.43;0.70;;;13.60;99.90;;;;;;5094716;28;20252;-51
2022/07/15 03:39:53;;;;;;;2.30;0.50;;;13.60;99.90;;;;;;5062351;28;20202;-50
2022/07/15 03:42:20;;;;;;;1.73;1.03;;;13.60;99.90;;;;;;5061179;28;20229;-50
2022/07/15 03:44:47;;;;;;;2.73;0.60;;;13.60;99.90;;;;;;5063980;28;20222;-47
2022/07/15 03:47:15;;;;;;;2.23;0.70;;;13.60;99.90;;;;;;5060262;28;20269;-52
2022/07/15 03:49:43;;;;;;;4.17;0.97;;;13.60;99.90;;;;;;5063367;28;20575;-54
2022/07/15 03:52:10;;;;;;;3.43;0.70;;;13.60;99.90;;;;;;5077592;28;20219;-52
2022/07/15 03:54:37;;;;;;;1.27;0.70;;;13.60;99.90;;;;;;5095874;28;20222;-49
2022/07/15 03:57:04;;;;;;;4.33;0.60;;;13.60;99.90;;;;;;5093950;28;20747;-50
2022/07/15 03:59:31;;;;;;;4.73;0.90;;;13.60;99.90;;;;;;5095849;28;20207;-48
2022/07/15 04:01:58;;;;;;;3.97;0.70;;;13.70;99.90;;;;;;5061498;28;20203;-50
2022/07/15 04:04:25;;;;;;;4.83;0.90;;;13.70;99.90;;;;;;5060171;28;20210;-51
2022/07/15 04:06:53;;;;;;;1.70;0.60;;;13.70;99.90;;;;;;5049178;28;20222;-53
2022/07/15 04:09:23;;;;;;;2.57;0.80;;;13.80;99.90;;;;;;5093981;28;20263;-51
2022/07/15 04:11:51;;;;;;;2.67;0.97;;;13.80;99.90;;;;;;5063547;28;20218;-49
2022/07/15 04:14:22;;;;;;;2.83;0.60;;;13.80;99.90;;;;;;5092227;28;20206;-49
2022/07/15 04:16:49;;;;;;;3.83;0.50;;;13.80;99.90;;;;;;5063874;28;20656;-47
2022/07/15 04:19:32;;;;;;;2.20;0.70;;;13.80;99.90;;;;;;5094683;28;20312;-47
2022/07/15 04:22:03;;;;;;;2.63;0.70;;;13.90;99.90;;;;;;5081906;28;20199;-55
2022/07/15 04:24:38;;;;;;;2.10;0.73;;;13.90;99.90;;;;;;5092895;28;20578;-46
2022/07/15 04:27:07;;;;;;;5.17;0.60;;;13.90;99.90;;;;;;5059231;28;20201;-49
2022/07/15 04:29:35;;;;;;;3.33;0.37;;;14.00;99.90;;;;;;5063490;28;20205;-50
2022/07/15 04:32:04;;;;;;;3.17;0.70;;;14.00;99.90;;;;;;5092157;28;20241;-52
2022/07/15 04:34:35;;;;;;;3.10;0.60;;;14.10;99.90;;;;;;5053272;28;20599;-50
2022/07/15 04:37:03;;;;;;;1.43;0.67;;;14.10;99.90;;;;;;5061570;28;20191;-51
2022/07/15 04:39:31;;;;;;;4.03;0.60;;;14.10;99.90;;;;;;5075075;28;20219;-49
2022/07/15 04:41:59;;;;;;;2.57;0.70;;;14.20;99.90;;;;;;5053395;28;20329;-48
2022/07/15 04:44:26;;;;;;;1.70;0.60;;;14.20;99.90;;;;;;5059138;28;20895;-51
2022/07/15 04:46:55;;;;;;;9.20;1.47;;;14.20;99.90;;;;;;5088729;28;20213;-49
2022/07/15 04:52:17;;;;;;;7.03;0.93;;;14.30;99.90;;;;;;5060440;28;20219;-52
2022/07/15 04:54:47;;;;;;;1.30;0.50;;;14.30;99.90;;;;;;5041304;28;20222;-49
2022/07/15 04:57:14;;;;;;;5.40;0.90;;;14.40;99.90;;;;;;5061697;28;20202;-50
2022/07/15 04:59:42;;;;;;;5.93;1.20;;;14.40;99.90;;;;;;5091669;28;20285;-46
2022/07/15 05:02:13;;;;;;;4.00;0.90;;;14.40;99.90;;;;;;5088267;28;20198;-52
2022/07/15 05:04:46;;;;;;;3.13;1.23;;;14.40;99.90;;;;;;5091741;28;20310;-51
2022/07/15 05:07:14;;;;;;;3.63;0.73;;;14.40;99.90;;;;;;5095786;28;20293;-52
2022/07/15 05:09:44;;;;;;;2.77;0.67;;;14.50;99.90;;;;;;5037844;28;20206;-53
2022/07/15 05:12:12;;;;;;;4.30;0.80;;;14.50;99.90;;;;;;5061136;28;20213;-55
2022/07/15 05:14:46;;;;;;;6.37;1.10;;;14.50;99.90;;;;;;5062269;28;20271;-55
2022/07/15 05:17:15;;;;;;;3.37;1.00;;;14.50;99.90;;;;;;5098248;28;20195;-52
2022/07/15 05:19:44;;;;;;;2.77;0.70;;;14.60;99.90;;;;;;5091602;28;20205;-51
2022/07/15 05:22:16;;;;;;;4.93;0.67;;;14.60;99.90;;;;;;5098729;28;20260;-53
2022/07/15 05:24:45;;;;;;;2.67;0.80;;;14.60;99.90;;;;;;5079876;28;20241;-53
2022/07/15 05:27:14;;;;;;;4.93;0.80;;;14.60;99.90;;;;;;5065430;28;20195;-52
2022/07/15 05:29:44;;;;;;;3.27;0.93;;;14.60;99.90;;;;;;5095618;28;20195;-53
2022/07/15 05:32:11;;;;;;;2.67;0.70;;;14.70;99.90;;;;;;5064384;28;20707;-51
2022/07/15 05:34:38;;;;;;;4.47;0.73;;;14.70;99.90;;;;;;5088507;28;20218;-50
2022/07/15 05:37:07;;;;;;;3.53;0.83;;;14.60;99.90;;;;;;5065132;28;20202;-50
2022/07/15 05:39:36;;;;;;;1.83;0.50;;;14.60;99.90;;;;;;5079927;28;20238;-54
2022/07/15 05:42:06;;;;;;;4.77;0.97;;;14.60;99.90;;;;;;5063936;28;20206;-52
2022/07/15 05:44:34;;;;;;;1.53;0.60;;;14.50;99.90;;;;;;5058875;28;20305;-52
2022/07/15 05:47:03;;;;;;;1.47;0.70;;;14.40;99.90;;;;;;5063686;28;20202;-52
2022/07/15 05:49:30;;;;;;;3.93;0.83;;;14.40;99.90;;;;;;5056503;28;20291;-51
2022/07/15 05:51:57;;;;;;;4.97;0.70;;;14.40;99.90;;;;;;5097138;28;20195;-53
2022/07/15 05:54:25;;;;;;;3.10;0.70;;;14.40;99.90;;;;;;5054791;28;20202;-49
2022/07/15 05:56:52;;;;;;;3.20;0.67;;;14.40;99.90;;;;;;5078816;28;20218;-50
2022/07/15 05:59:24;;;;;;;3.33;0.60;;;14.50;99.90;;;;;;5062497;28;20194;-50
2022/07/15 06:01:51;;;;;;;2.83;0.60;;;14.50;99.90;;;;;;5053026;28;20990;-47
2022/07/15 06:04:20;;;;;;;2.97;0.70;;;14.60;99.90;;;;;;5053436;28;20209;-53
2022/07/15 06:06:48;;;;;;;4.97;0.63;;;14.60;99.90;;;;;;5095357;28;20195;-52
2022/07/15 06:09:15;;;;;;;2.27;1.10;;;14.70;99.90;;;;;;5064208;28;20202;-52
2022/07/15 06:11:42;;;;;;;1.23;0.77;;;14.80;99.90;;;;;;5038798;28;20202;-51
2022/07/15 06:14:10;;;;;;;3.07;0.40;;;14.90;99.90;;;;;;5063513;28;20210;-50
2022/07/15 06:16:38;;;;;;;4.87;0.83;;;14.90;99.90;;;;;;5056690;28;20732;-52
2022/07/15 06:19:08;;;;;;;3.67;0.70;;;15.00;99.90;;;;;;5056376;28;20205;-51
2022/07/15 06:21:35;;;;;;;1.63;0.57;;;15.00;99.90;;;;;;5061762;28;20195;-46
2022/07/15 06:24:03;;;;;;;2.33;0.80;;;15.00;99.90;;;;;;5061633;28;20577;-53
2022/07/15 06:26:29;;;;;;;2.00;0.77;;;15.00;99.90;;;;;;5050349;28;20241;-47
2022/07/15 06:28:56;;;;;;;3.10;0.90;;;14.90;99.90;;;;;;5069079;28;20248;-50
2022/07/15 06:31:23;;;;;;;4.40;0.57;;;14.90;99.90;;;;;;5062868;28;20187;-50
2022/07/15 06:33:51;;;;;;;2.33;0.60;;;14.90;99.90;;;;;;5061329;28;20214;-51
2022/07/15 06:36:18;;;;;;;3.63;0.83;;;14.80;99.90;;;;;;5057618;28;20206;-47
2022/07/15 06:38:45;;;;;;;1.37;0.47;;;14.80;99.90;;;;;;5099378;28;20206;-50
2022/07/15 06:41:12;;;;;;;0.83;0.50;;;14.90;99.90;;;;;;5047429;28;20576;-50
2022/07/15 06:43:39;;;;;;;3.67;0.80;;;14.90;99.90;;;;;;5063234;28;20198;-47
2022/07/15 06:46:10;;;;;;;2.10;0.40;;;15.00;99.90;;;;;;5059232;28;20219;-47
2022/07/15 06:48:40;;;;;;;3.90;0.73;;;15.10;99.90;;;;;;5057744;28;20225;-48
2022/07/15 06:51:09;;;;;;;2.20;0.57;;;15.20;99.90;;;;;;5056489;28;20206;-50
2022/07/15 06:53:36;;;;;;;4.77;0.90;;;15.30;99.90;;;;;;5064926;28;20226;-48
2022/07/15 06:56:04;;;;;;;10.07;1.47;;;15.30;99.90;;;;;;5094367;28;20227;-52
2022/07/15 06:58:30;;;;;;;4.27;0.70;;;15.20;99.90;;;;;;5048460;28;20260;-51
2022/07/15 07:00:58;;;;;;;2.50;0.63;;;15.30;99.90;;;;;;5059240;28;20195;-50
2022/07/15 07:03:25;;;;;;;2.73;0.70;;;15.40;99.90;;;;;;5056888;28;21067;-46
2022/07/15 07:05:52;;;;;;;3.23;1.13;;;15.40;99.90;;;;;;5063757;28;20218;-48
2022/07/15 07:08:21;;;;;;;3.30;0.60;;;15.40;99.90;;;;;;5055971;28;20218;-50
2022/07/15 07:10:48;;;;;;;5.57;1.30;;;15.40;99.90;;;;;;5094445;28;20232;-52
2022/07/15 07:13:14;;;;;;;5.20;1.00;;;15.40;99.90;;;;;;5044887;28;20214;-50
2022/07/15 07:15:42;;;;;;;1.77;0.70;;;15.50;99.90;;;;;;5065913;28;20214;-54
2022/07/15 07:18:08;;;;;;;3.40;0.70;;;15.50;99.90;;;;;;5055607;28;20194;-51
2022/07/15 07:20:37;;;;;;;2.40;0.47;;;15.50;99.90;;;;;;5062247;28;20723;-49
2022/07/15 07:23:04;;;;;;;2.20;0.50;;;15.70;99.90;;;;;;5061229;28;20270;-51
2022/07/15 07:25:31;;;;;;;1.20;0.37;;;15.80;99.90;;;;;;5061323;28;20238;-47
2022/07/15 07:28:03;;;;;;;5.97;1.30;;;15.80;99.90;;;;;;5052278;28;20203;-52
2022/07/15 07:30:30;;;;;;;1.10;0.47;;;15.80;99.90;;;;;;5063225;28;20209;-46
2022/07/15 07:32:56;;;;;;;5.43;1.03;;;15.90;99.90;;;;;;5062565;28;20214;-52
2022/07/15 07:35:24;;;;;;;4.57;0.53;;;15.90;99.90;;;;;;5055035;28;20225;-49
2022/07/15 07:37:51;;;;;;;1.80;0.50;;;15.90;99.90;;;;;;5062989;28;20199;-49
2022/07/15 07:40:18;;;;;;;2.90;0.90;;;16.00;99.90;;;;;;5055031;28;20198;-49
2022/07/15 07:42:46;;;;;;;1.93;0.50;;;16.10;99.90;;;;;;5062500;28;20539;-48
2022/07/15 07:45:12;;;;;;;2.37;0.60;;;16.10;99.90;;;;;;5044334;28;20219;-46
2022/07/15 07:47:40;;;;;;;2.43;0.73;;;16.10;99.90;;;;;;5063554;28;20557;-47
2022/07/15 07:50:08;;;;;;;2.57;0.37;;;16.30;99.90;;;;;;5054417;28;20738;-51
2022/07/15 07:52:35;;;;;;;2.17;0.53;;;16.30;99.90;;;;;;5068929;28;20572;-49
2022/07/15 07:55:02;;;;;;;4.67;0.60;;;16.20;99.90;;;;;;5061051;28;20222;-51
2022/07/15 07:57:29;;;;;;;5.27;0.70;;;16.00;99.90;;;;;;5062561;28;20202;-46
2022/07/15 07:59:57;;;;;;;3.87;0.97;;;16.00;99.90;;;;;;5047831;28;20206;-51
2022/07/15 08:02:23;;;;;;;2.47;0.73;;;16.00;99.90;;;;;;5059691;28;20252;-48
2022/07/15 08:04:51;;;;;;;2.90;0.93;;;15.90;99.90;;;;;;5056730;28;20707;-51
2022/07/15 08:07:18;;;;;;;0.70;0.50;;;15.90;99.90;;;;;;5060774;28;20191;-50
2022/07/15 08:09:45;;;;;;;1.50;0.40;;;15.90;99.90;;;;;;5057925;28;20207;-48
2022/07/15 08:12:12;;;;;;;2.10;0.40;;;15.90;99.90;;;;;;5059076;28;20195;-50
2022/07/15 08:14:39;;;;;;;2.97;0.50;;;15.90;99.90;;;;;;5037147;28;20226;-47
2022/07/15 08:17:08;;;;;;;1.97;0.60;;;15.90;99.90;;;;;;5059259;28;20191;-50
2022/07/15 08:19:34;;;;;;;2.63;0.57;;;16.00;99.90;;;;;;5052878;28;20289;-50
2022/07/15 08:22:01;;;;;;;1.30;0.57;;;16.00;99.90;;;;;;5056485;28;20202;-48
2022/07/15 08:24:28;;;;;;;2.00;0.70;;;15.90;99.90;;;;;;5057142;28;20609;-51
2022/07/15 08:26:55;;;;;;;1.27;0.47;;;15.90;99.90;;;;;;5059097;28;20749;-54
2022/07/15 08:29:22;;;;;;;4.33;0.60;;;15.90;99.90;;;;;;5059516;28;20210;-51
2022/07/15 08:31:50;;;;;;;3.50;1.00;;;15.90;99.90;;;;;;5044936;28;20198;-52
2022/07/15 08:34:18;;;;;;;3.93;0.67;;;15.90;99.90;;;;;;5061444;28;20219;-50
2022/07/15 08:36:44;;;;;;;2.87;0.63;;;16.00;99.90;;;;;;5048112;28;20206;-52
2022/07/15 08:39:12;;;;;;;1.07;0.30;;;16.10;99.90;;;;;;5063027;28;20564;-46
2022/07/15 08:41:39;;;;;;;4.83;0.70;;;16.20;99.90;;;;;;5052385;28;20285;-48
2022/07/15 08:44:07;;;;;;;4.53;0.47;;;16.40;99.90;;;;;;5062034;28;20199;-49
2022/07/15 08:46:35;;;;;;;2.33;0.53;;;16.60;99.90;;;;;;5046870;28;20222;-50
2022/07/15 08:49:05;;;;;;;3.30;0.30;;;16.60;99.90;;;;;;5058863;28;20190;-51
2022/07/15 08:51:37;;;;;;;2.03;0.63;;;16.70;99.90;;;;;;5053271;28;20263;-54
2022/07/15 08:54:03;;;;;;;1.00;0.30;;;16.90;99.90;;;;;;5061963;28;20690;-51
2022/07/15 08:56:31;;;;;;;1.43;0.57;;;17.00;99.90;;;;;;5053704;28;20227;-49
2022/07/15 08:58:58;;;;;;;1.57;0.40;;;16.90;99.90;;;;;;5062471;28;20205;-48
2022/07/15 09:01:25;;;;;;;2.33;0.60;;;16.70;99.90;;;;;;5048305;28;20198;-54
2022/07/15 09:03:52;;;;;;;1.27;0.40;;;16.30;99.90;;;;;;5055993;28;20182;-47
2022/07/15 09:06:36;;;;;;;0.77;0.50;;;16.00;99.90;;;;;;5060335;28;20229;-52
2022/07/15 09:09:31;;;;;;;2.90;0.60;;;15.70;99.90;;;;;;5060703;28;20190;-47
2022/07/15 09:12:01;;;;;;;2.47;0.70;;;15.50;99.90;;;;;;5054847;28;20199;-52
2022/07/15 09:14:30;;;;;;;2.27;0.40;;;15.50;99.90;;;;;;5059158;28;20210;-51
2022/07/15 09:17:23;;;;;;;2.47;0.60;;;15.50;99.90;;;;;;5061491;28;20203;-50
2022/07/15 09:20:01;;;;;;;1.60;0.50;;;15.70;99.90;;;;;;5054031;28;20205;-48
2022/07/15 09:22:31;;;;;;;1.57;0.50;;;15.80;99.90;;;;;;5050668;28;20199;-51
2022/07/15 09:25:04;;;;;;;2.80;0.50;;;16.00;99.90;;;;;;5067984;28;20304;-50
2022/07/15 09:27:32;;;;;;;4.33;0.80;;;16.10;99.90;;;;;;5053830;28;20198;-54
2022/07/15 09:36:02;;;;;;;1.03;0.40;;;16.30;99.90;;;;;;5056724;28;20283;-52
2022/07/15 09:38:42;;;;;;;3.17;0.57;;;16.40;99.90;;;;;;5052653;28;20213;-56
2022/07/15 09:41:14;;;;;;;1.77;0.30;;;16.60;99.90;;;;;;5064820;28;20205;-51
2022/07/15 09:43:52;;;;;;;2.90;0.50;;;16.80;99.90;;;;;;5053443;28;20222;-50
2022/07/15 09:46:21;;;;;;;1.37;0.30;;;16.90;99.90;;;;;;5054734;28;20232;-54
2022/07/15 09:48:50;;;;;;;1.87;0.37;;;17.00;99.90;;;;;;5046854;28;20217;-52
2022/07/15 09:51:17;;;;;;;3.70;0.40;;;17.10;99.90;;;;;;5058768;28;20199;-55
2022/07/15 09:53:46;;;;;;;1.60;0.47;;;17.10;99.90;;;;;;5059060;28;20230;-55
2022/07/15 09:56:15;;;;;;;3.23;0.83;;;17.30;99.90;;;;;;5059766;28;20215;-53
2022/07/15 09:58:43;;;;;;;4.30;0.60;;;17.50;99.90;;;;;;5054779;28;20293;-50
2022/07/15 10:01:12;;;;;;;3.53;0.83;;;17.80;99.90;;;;;;5061285;28;20203;-55
2022/07/15 10:03:40;;;;;;;0.60;0.30;;;17.90;99.90;;;;;;5061319;28;20199;-52
2022/07/15 10:06:07;;;;;;;2.07;0.40;;;17.80;99.90;;;;;;5049931;28;20843;-54
2022/07/15 10:08:35;;;;;;;1.23;0.40;;;17.60;99.90;;;;;;5061911;28;20210;-52
2022/07/15 10:11:10;;;;;;;4.40;0.73;;;17.60;99.90;;;;;;5062951;28;20260;-52
2022/07/15 10:14:01;;;;;;;4.77;0.63;;;17.50;99.90;;;;;;5060569;28;20216;-51
2022/07/15 10:16:49;;;;;;;2.57;0.80;;;17.50;99.90;;;;;;5062307;28;20215;-53
2022/07/15 10:19:27;;;;;;;4.70;0.53;;;17.50;99.90;;;;;;5050684;28;20321;-56
2022/07/15 10:22:05;;;;;;;1.33;0.33;;;17.60;99.90;;;;;;5063833;28;20217;-54
2022/07/15 10:24:48;;;;;;;5.80;0.87;;;17.70;99.90;;;;;;5055320;28;20233;-48
2022/07/15 10:27:38;;;;;;;2.13;0.50;;;17.70;99.90;;;;;;5063284;28;20206;-52
2022/07/15 10:30:08;;;;;;;1.30;0.27;;;17.90;99.90;;;;;;5055432;28;20202;-56
2022/07/15 10:33:14;;;;;;;0.43;0.20;;;18.10;99.90;;;;;;5061336;28;20194;-47
2022/07/15 10:35:43;;;;;;;1.20;0.47;;;18.10;99.90;;;;;;5043533;28;20218;-46
2022/07/15 10:38:31;;;;;;;0.77;0.30;;;18.00;99.90;;;;;;5058293;28;20191;-53
2022/07/15 10:41:00;;;;;;;0.67;0.30;;;18.00;99.90;;;;;;5059713;28;20211;-51
2022/07/15 10:43:47;;;;;;;5.00;0.50;;;18.10;99.90;;;;;;5058053;28;20293;-54
2022/07/15 10:46:26;;;;;;;3.40;0.40;;;18.10;99.90;;;;;;5056968;28;20222;-54
2022/07/15 10:49:27;;;;;;;2.97;0.40;;;18.30;99.90;;;;;;5060605;28;20205;-48
2022/07/15 10:51:55;;;;;;;8.20;1.77;;;18.50;99.10;;;;;;5051844;28;20212;-50
2022/07/15 10:54:42;;;;;;;2.73;0.77;;;18.50;99.80;;;;;;5061204;28;20215;-54
2022/07/15 10:57:10;;;;;;;2.83;0.60;;;18.60;98.70;;;;;;5056122;28;20199;-59
2022/07/15 10:59:46;;;;;;;1.43;0.60;;;18.60;99.00;;;;;;5061814;28;20207;-49
2022/07/15 11:02:16;;;;;;;4.20;0.43;;;18.50;98.10;;;;;;5055898;28;20209;-49
2022/07/15 11:04:44;;;;;;;2.00;0.80;;;18.20;98.90;;;;;;5063260;28;20211;-47
2022/07/15 11:07:35;;;;;;;3.30;0.60;;;18.10;99.10;;;;;;5052243;28;21046;-50
2022/07/15 11:10:17;;;;;;;1.20;0.40;;;18.00;99.00;;;;;;5063599;28;20202;-48
2022/07/15 11:13:06;;;;;;;2.70;0.53;;;17.90;99.60;;;;;;5060835;28;20190;-50
2022/07/15 11:15:34;;;;;;;2.40;0.30;;;17.90;99.70;;;;;;5060387;28;20872;-51
2022/07/15 11:18:03;;;;;;;1.40;0.60;;;17.90;99.90;;;;;;5059674;28;20268;-49
2022/07/15 11:20:35;;;;;;;1.13;0.40;;;18.00;99.90;;;;;;5058808;28;20887;-63
2022/07/15 11:23:05;;;;;;;2.40;0.40;;;18.20;99.90;;;;;;5049439;28;20211;-63
2022/07/15 11:25:34;;;;;;;2.47;0.40;;;18.30;99.90;;;;;;5060123;28;20260;-62
2022/07/15 11:28:07;;;;;;;3.00;0.50;;;18.40;99.90;;;;;;5060621;28;20859;-46
2022/07/15 11:30:39;;;;;;;0.50;0.30;;;18.40;99.80;;;;;;5059696;28;20281;-48
2022/07/15 11:33:09;;;;;;;1.23;0.60;;;18.50;99.10;;;;;;5064423;28;20207;-50
2022/07/15 11:35:48;;;;;;;1.53;0.50;;;18.40;99.60;;;;;;5060355;28;20214;-46
2022/07/15 11:38:15;;;;;;;3.40;0.50;;;18.50;99.70;;;;;;5045103;28;20671;-48
2022/07/15 11:46:17;;;;;;;2.40;0.50;;;18.80;99.10;;;;;;5067189;28;20218;-62
2022/07/15 11:48:44;;;;;;;4.57;0.70;;;18.80;99.20;;;;;;5057229;28;20213;-62
2022/07/15 11:51:12;;;;;;;1.33;0.30;;;18.80;99.10;;;;;;5065834;28;20198;-62
2022/07/15 11:53:41;;;;;;;1.93;0.50;;;18.80;98.80;;;;;;5045715;28;20971;-62
2022/07/15 11:56:10;;;;;;;1.37;0.50;;;18.70;98.90;;;;;;5071600;28;20233;-62
2022/07/15 11:58:39;;;;;;;1.13;0.30;;;18.60;99.10;;;;;;5056169;28;20207;-52
2022/07/15 12:01:08;;;;;;;5.50;0.50;;;18.50;99.30;;;;;;5060411;28;20202;-55
2022/07/15 12:03:39;;;;;;;3.27;0.53;;;18.70;99.00;;;;;;5054381;28;20226;-53
2022/07/15 12:06:09;;;;;;;1.33;0.50;;;18.80;98.40;;;;;;5059887;28;20951;-54
2022/07/15 12:08:40;;;;;;;1.00;0.60;;;19.00;98.20;;;;;;5045860;28;20210;-54
2022/07/15 12:11:13;;;;;;;2.33;0.80;;;19.20;98.30;;;;;;5064292;28;20209;-49
2022/07/15 12:13:45;;;;;;;2.13;0.70;;;19.40;98.20;;;;;;5071664;28;20190;-50
2022/07/15 12:16:12;;;;;;;0.73;0.30;;;19.30;98.20;;;;;;5060370;28;20218;-55
2022/07/15 12:18:41;;;;;;;2.40;0.33;;;19.20;98.50;;;;;;5062721;28;20194;-49
2022/07/15 12:21:08;;;;;;;2.07;0.60;;;19.00;98.60;;;;;;5057350;28;20627;-52
2022/07/15 12:23:35;;;;;;;0.63;0.30;;;18.90;98.70;;;;;;5045929;28;20202;-53
2022/07/15 12:26:04;;;;;;;1.40;0.33;;;18.90;98.70;;;;;;5059921;28;20233;-56
2022/07/15 12:28:32;;;;;;;1.37;0.50;;;19.00;98.50;;;;;;5058180;28;20534;-55
2022/07/15 12:30:59;;;;;;;1.27;0.40;;;19.00;98.30;;;;;;5059139;28;20214;-53
2022/07/15 12:33:27;;;;;;;1.17;0.60;;;19.00;97.70;;;;;;5064562;28;20194;-53
2022/07/15 12:36:18;;;;;;;1.20;0.60;;;19.00;97.40;;;;;;5059726;28;20861;-52
2022/07/15 12:38:45;;;;;;;2.27;0.53;;;19.10;96.90;;;;;;5046262;28;21015;-52
2022/07/15 12:41:24;;;;;;;2.00;0.60;;;19.40;96.80;;;;;;5067077;28;20212;-54
2022/07/15 12:43:53;;;;;;;2.23;0.40;;;19.60;96.60;;;;;;5064198;28;20200;-54
2022/07/15 12:46:21;;;;;;;2.23;0.57;;;19.70;96.30;;;;;;5051331;28;20234;-55
2022/07/15 12:48:50;;;;;;;1.23;0.50;;;19.80;96.00;;;;;;5066390;28;20837;-54
2022/07/15 12:51:24;;;;;;;0.77;0.20;;;19.80;96.00;;;;;;5056303;28;20202;-55
2022/07/15 12:53:50;;;;;;;4.23;0.43;;;20.00;95.90;;;;;;5050069;28;20575;-55
2022/07/15 12:56:17;;;;;;;1.87;0.60;;;20.30;95.00;;;;;;5059864;28;20242;-57
2022/07/15 12:58:51;;;;;;;2.30;0.37;;;20.20;94.10;;;;;;5061775;28;20198;-55
2022/07/15 13:01:18;;;;;;;1.90;0.50;;;20.10;94.60;;;;;;5048635;28;20198;-55
2022/07/15 13:03:46;;;;;;;2.60;0.53;;;20.50;95.60;;;;;;5064436;28;20201;-52
2022/07/15 13:06:14;;;;;;;1.00;0.40;;;20.70;94.30;;;;;;5061456;28;20828;-53
2022/07/15 13:08:42;;;;;;;1.30;0.30;;;20.60;93.40;;;;;;5069882;28;20213;-53
2022/07/15 13:11:10;;;;;;;2.33;0.47;;;20.70;93.00;;;;;;5050527;28;20205;-53
2022/07/15 13:13:38;;;;;;;3.97;0.33;;;;;;;;;;5060636;28;20236;-54
2022/07/15 13:16:06;;;;;;;0.83;0.30;;;21.80;91.80;;;;;;5061348;28;20691;-52